sensor_id;sensor_type;location;lat;lon;timestamp;P1;durP1;ratioP1;P2;durP2;ratioP2
33579;SDS011;19909;43.644;-79.438;2023-08-07T00:00:51;7.93;;;7.13;;
33579;SDS011;19909;43.644;-79.438;2023-08-07T00:03:18;8.85;;;6.80;;
33579;SDS011;19909;43.644;-79.438;2023-08-07T00:05:45;8.63;;;7.38;;
33579;SDS011;19909;43.644;-79.438;2023-08-07T00:08:11;9.93;;;8.93;;
33579;SDS011;19909;43.644;-79.438;2023-08-07T00:10:37;13.27;;;10.18;;
33579;SDS011;19909;43.644;-79.438;2023-08-07T00:13:04;11.82;;;10.05;;
33579;SDS011;19909;43.644;-79.438;2023-08-07T00:15:30;11.30;;;10.13;;
33579;SDS011;19909;43.644;-79.438;2023-08-07T00:17:58;14.43;;;9.10;;
33579;SDS011;19909;43.644;-79.438;2023-08-07T00:20:25;9.48;;;8.57;;
33579;SDS011;19909;43.644;-79.438;2023-08-07T00:22:51;8.48;;;7.57;;
33579;SDS011;19909;43.644;-79.438;2023-08-07T00:25:17;9.48;;;8.45;;
33579;SDS011;19909;43.644;-79.438;2023-08-07T00:27:44;8.57;;;7.53;;
33579;SDS011;19909;43.644;-79.438;2023-08-07T00:30:10;8.52;;;7.15;;
33579;SDS011;19909;43.644;-79.438;2023-08-07T00:32:36;8.40;;;7.30;;
33579;SDS011;19909;43.644;-79.438;2023-08-07T00:35:03;7.95;;;7.15;;
33579;SDS011;19909;43.644;-79.438;2023-08-07T00:37:30;10.52;;;7.95;;
33579;SDS011;19909;43.644;-79.438;2023-08-07T00:39:56;9.45;;;8.05;;
33579;SDS011;19909;43.644;-79.438;2023-08-07T00:42:23;8.07;;;7.28;;
33579;SDS011;19909;43.644;-79.438;2023-08-07T00:44:49;8.65;;;7.75;;
33579;SDS011;19909;43.644;-79.438;2023-08-07T00:47:15;9.15;;;8.23;;
33579;SDS011;19909;43.644;-79.438;2023-08-07T00:49:41;10.05;;;7.78;;
33579;SDS011;19909;43.644;-79.438;2023-08-07T00:52:07;8.70;;;7.88;;
33579;SDS011;19909;43.644;-79.438;2023-08-07T00:54:34;8.68;;;7.82;;
33579;SDS011;19909;43.644;-79.438;2023-08-07T00:57:06;8.88;;;7.60;;
33579;SDS011;19909;43.644;-79.438;2023-08-07T00:59:40;10.10;;;7.28;;
33579;SDS011;19909;43.644;-79.438;2023-08-07T01:02:07;8.68;;;7.05;;
33579;SDS011;19909;43.644;-79.438;2023-08-07T01:04:37;8.45;;;7.43;;
33579;SDS011;19909;43.644;-79.438;2023-08-07T01:07:03;7.63;;;6.88;;
33579;SDS011;19909;43.644;-79.438;2023-08-07T01:09:30;8.23;;;7.43;;
33579;SDS011;19909;43.644;-79.438;2023-08-07T01:17:31;7.13;;;6.30;;
33579;SDS011;19909;43.644;-79.438;2023-08-07T01:19:59;7.07;;;6.38;;
33579;SDS011;19909;43.644;-79.438;2023-08-07T01:22:27;7.82;;;6.28;;
33579;SDS011;19909;43.644;-79.438;2023-08-07T01:24:53;7.07;;;5.88;;
33579;SDS011;19909;43.644;-79.438;2023-08-07T01:29:56;6.72;;;6.03;;
33579;SDS011;19909;43.644;-79.438;2023-08-07T01:33:04;7.28;;;6.38;;
33579;SDS011;19909;43.644;-79.438;2023-08-07T01:35:40;8.23;;;6.70;;
33579;SDS011;19909;43.644;-79.438;2023-08-07T01:38:09;7.10;;;6.20;;
33579;SDS011;19909;43.644;-79.438;2023-08-07T01:40:38;6.85;;;6.15;;
33579;SDS011;19909;43.644;-79.438;2023-08-07T01:43:05;7.05;;;6.30;;
33579;SDS011;19909;43.644;-79.438;2023-08-07T01:45:32;7.63;;;6.90;;
33579;SDS011;19909;43.644;-79.438;2023-08-07T01:47:59;9.27;;;8.10;;
33579;SDS011;19909;43.644;-79.438;2023-08-07T01:50:25;8.20;;;6.95;;
33579;SDS011;19909;43.644;-79.438;2023-08-07T01:52:52;8.68;;;6.40;;
33579;SDS011;19909;43.644;-79.438;2023-08-07T01:55:18;5.95;;;5.40;;
33579;SDS011;19909;43.644;-79.438;2023-08-07T01:57:47;6.30;;;5.70;;
33579;SDS011;19909;43.644;-79.438;2023-08-07T02:00:16;7.43;;;5.90;;
33579;SDS011;19909;43.644;-79.438;2023-08-07T02:02:42;7.90;;;6.05;;
33579;SDS011;19909;43.644;-79.438;2023-08-07T02:05:10;6.75;;;5.63;;
33579;SDS011;19909;43.644;-79.438;2023-08-07T02:07:36;6.22;;;5.57;;
33579;SDS011;19909;43.644;-79.438;2023-08-07T02:10:02;6.82;;;5.22;;
33579;SDS011;19909;43.644;-79.438;2023-08-07T02:12:29;8.60;;;5.82;;
33579;SDS011;19909;43.644;-79.438;2023-08-07T02:14:57;8.13;;;5.90;;
33579;SDS011;19909;43.644;-79.438;2023-08-07T02:17:25;6.28;;;4.88;;
33579;SDS011;19909;43.644;-79.438;2023-08-07T02:19:52;7.20;;;5.32;;
33579;SDS011;19909;43.644;-79.438;2023-08-07T02:22:18;8.57;;;5.40;;
33579;SDS011;19909;43.644;-79.438;2023-08-07T02:24:47;5.35;;;4.82;;
33579;SDS011;19909;43.644;-79.438;2023-08-07T02:27:13;5.78;;;4.88;;
33579;SDS011;19909;43.644;-79.438;2023-08-07T02:29:40;5.63;;;4.68;;
33579;SDS011;19909;43.644;-79.438;2023-08-07T02:32:06;5.47;;;4.88;;
33579;SDS011;19909;43.644;-79.438;2023-08-07T02:34:33;5.68;;;5.05;;
33579;SDS011;19909;43.644;-79.438;2023-08-07T02:36:59;6.22;;;4.95;;
33579;SDS011;19909;43.644;-79.438;2023-08-07T02:39:25;5.95;;;4.78;;
33579;SDS011;19909;43.644;-79.438;2023-08-07T02:41:51;4.90;;;4.40;;
33579;SDS011;19909;43.644;-79.438;2023-08-07T02:44:17;9.43;;;4.90;;
33579;SDS011;19909;43.644;-79.438;2023-08-07T02:46:48;7.20;;;5.57;;
33579;SDS011;19909;43.644;-79.438;2023-08-07T02:49:20;7.82;;;4.50;;
33579;SDS011;19909;43.644;-79.438;2023-08-07T02:51:46;7.18;;;4.53;;
33579;SDS011;19909;43.644;-79.438;2023-08-07T02:54:12;8.15;;;5.00;;
33579;SDS011;19909;43.644;-79.438;2023-08-07T02:56:41;7.25;;;5.15;;
33579;SDS011;19909;43.644;-79.438;2023-08-07T02:59:10;5.75;;;5.10;;
33579;SDS011;19909;43.644;-79.438;2023-08-07T03:01:39;6.10;;;4.82;;
33579;SDS011;19909;43.644;-79.438;2023-08-07T03:04:05;7.10;;;4.75;;
33579;SDS011;19909;43.644;-79.438;2023-08-07T03:06:31;5.45;;;4.95;;
33579;SDS011;19909;43.644;-79.438;2023-08-07T03:08:57;6.43;;;4.40;;
33579;SDS011;19909;43.644;-79.438;2023-08-07T03:11:23;7.45;;;4.78;;
33579;SDS011;19909;43.644;-79.438;2023-08-07T03:13:50;13.68;;;5.50;;
33579;SDS011;19909;43.644;-79.438;2023-08-07T03:16:16;5.82;;;5.32;;
33579;SDS011;19909;43.644;-79.438;2023-08-07T03:18:42;6.45;;;4.65;;
33579;SDS011;19909;43.644;-79.438;2023-08-07T03:21:12;6.60;;;4.82;;
33579;SDS011;19909;43.644;-79.438;2023-08-07T03:23:38;8.35;;;6.25;;
33579;SDS011;19909;43.644;-79.438;2023-08-07T03:26:05;12.30;;;7.88;;
33579;SDS011;19909;43.644;-79.438;2023-08-07T03:28:36;15.17;;;7.80;;
33579;SDS011;19909;43.644;-79.438;2023-08-07T03:31:03;11.60;;;8.60;;
33579;SDS011;19909;43.644;-79.438;2023-08-07T03:33:29;10.20;;;7.53;;
33579;SDS011;19909;43.644;-79.438;2023-08-07T03:35:59;10.90;;;7.53;;
33579;SDS011;19909;43.644;-79.438;2023-08-07T03:38:25;14.40;;;7.13;;
33579;SDS011;19909;43.644;-79.438;2023-08-07T03:40:57;7.15;;;6.40;;
33579;SDS011;19909;43.644;-79.438;2023-08-07T03:43:23;13.15;;;7.15;;
33579;SDS011;19909;43.644;-79.438;2023-08-07T03:45:53;12.13;;;6.55;;
33579;SDS011;19909;43.644;-79.438;2023-08-07T03:48:22;9.20;;;5.68;;
33579;SDS011;19909;43.644;-79.438;2023-08-07T03:50:48;7.22;;;6.10;;
33579;SDS011;19909;43.644;-79.438;2023-08-07T03:53:15;8.45;;;6.13;;
33579;SDS011;19909;43.644;-79.438;2023-08-07T03:55:41;10.55;;;5.47;;
33579;SDS011;19909;43.644;-79.438;2023-08-07T03:58:08;9.82;;;5.85;;
33579;SDS011;19909;43.644;-79.438;2023-08-07T04:00:34;8.98;;;5.65;;
33579;SDS011;19909;43.644;-79.438;2023-08-07T04:03:00;7.85;;;5.65;;
33579;SDS011;19909;43.644;-79.438;2023-08-07T04:05:26;9.93;;;5.68;;
33579;SDS011;19909;43.644;-79.438;2023-08-07T04:07:52;6.47;;;5.28;;
33579;SDS011;19909;43.644;-79.438;2023-08-07T04:10:18;10.55;;;5.88;;
33579;SDS011;19909;43.644;-79.438;2023-08-07T04:12:44;9.82;;;5.00;;
33579;SDS011;19909;43.644;-79.438;2023-08-07T04:15:10;11.88;;;6.00;;
33579;SDS011;19909;43.644;-79.438;2023-08-07T04:17:37;9.23;;;5.40;;
33579;SDS011;19909;43.644;-79.438;2023-08-07T04:20:03;7.90;;;6.32;;
33579;SDS011;19909;43.644;-79.438;2023-08-07T04:22:30;10.50;;;6.93;;
33579;SDS011;19909;43.644;-79.438;2023-08-07T04:24:56;15.27;;;7.35;;
33579;SDS011;19909;43.644;-79.438;2023-08-07T04:27:22;12.65;;;7.10;;
33579;SDS011;19909;43.644;-79.438;2023-08-07T04:29:48;8.90;;;6.63;;
33579;SDS011;19909;43.644;-79.438;2023-08-07T04:32:15;15.07;;;6.38;;
33579;SDS011;19909;43.644;-79.438;2023-08-07T04:34:41;11.73;;;6.95;;
33579;SDS011;19909;43.644;-79.438;2023-08-07T04:37:07;8.93;;;6.18;;
33579;SDS011;19909;43.644;-79.438;2023-08-07T04:39:33;11.88;;;6.00;;
33579;SDS011;19909;43.644;-79.438;2023-08-07T04:41:59;9.40;;;5.50;;
33579;SDS011;19909;43.644;-79.438;2023-08-07T04:44:25;9.65;;;6.10;;
33579;SDS011;19909;43.644;-79.438;2023-08-07T04:46:51;11.48;;;5.65;;
33579;SDS011;19909;43.644;-79.438;2023-08-07T04:49:17;8.95;;;5.68;;
33579;SDS011;19909;43.644;-79.438;2023-08-07T04:51:44;9.48;;;5.30;;
33579;SDS011;19909;43.644;-79.438;2023-08-07T04:54:10;13.10;;;5.60;;
33579;SDS011;19909;43.644;-79.438;2023-08-07T04:56:36;11.77;;;5.65;;
33579;SDS011;19909;43.644;-79.438;2023-08-07T04:59:02;11.20;;;5.72;;
33579;SDS011;19909;43.644;-79.438;2023-08-07T05:01:28;15.52;;;5.63;;
33579;SDS011;19909;43.644;-79.438;2023-08-07T05:03:54;8.80;;;6.00;;
33579;SDS011;19909;43.644;-79.438;2023-08-07T05:06:20;11.30;;;5.93;;
33579;SDS011;19909;43.644;-79.438;2023-08-07T05:08:47;9.38;;;5.60;;
33579;SDS011;19909;43.644;-79.438;2023-08-07T05:11:13;13.13;;;5.38;;
33579;SDS011;19909;43.644;-79.438;2023-08-07T05:13:40;15.57;;;6.72;;
33579;SDS011;19909;43.644;-79.438;2023-08-07T05:16:06;16.08;;;6.20;;
33579;SDS011;19909;43.644;-79.438;2023-08-07T05:18:32;13.75;;;6.53;;
33579;SDS011;19909;43.644;-79.438;2023-08-07T05:20:59;12.57;;;6.18;;
33579;SDS011;19909;43.644;-79.438;2023-08-07T05:23:25;9.80;;;6.40;;
33579;SDS011;19909;43.644;-79.438;2023-08-07T05:25:51;11.90;;;6.20;;
33579;SDS011;19909;43.644;-79.438;2023-08-07T05:28:17;9.48;;;6.45;;
33579;SDS011;19909;43.644;-79.438;2023-08-07T05:30:43;12.60;;;6.63;;
33579;SDS011;19909;43.644;-79.438;2023-08-07T05:33:09;12.18;;;6.32;;
33579;SDS011;19909;43.644;-79.438;2023-08-07T05:35:37;15.18;;;5.90;;
33579;SDS011;19909;43.644;-79.438;2023-08-07T05:38:04;10.70;;;6.30;;
33579;SDS011;19909;43.644;-79.438;2023-08-07T05:40:30;11.63;;;6.28;;
33579;SDS011;19909;43.644;-79.438;2023-08-07T05:42:56;11.10;;;5.78;;
33579;SDS011;19909;43.644;-79.438;2023-08-07T05:45:22;11.20;;;7.07;;
33579;SDS011;19909;43.644;-79.438;2023-08-07T05:47:48;9.77;;;6.78;;
33579;SDS011;19909;43.644;-79.438;2023-08-07T05:50:14;6.93;;;5.93;;
33579;SDS011;19909;43.644;-79.438;2023-08-07T05:52:40;9.00;;;6.13;;
33579;SDS011;19909;43.644;-79.438;2023-08-07T05:55:07;12.18;;;6.13;;
33579;SDS011;19909;43.644;-79.438;2023-08-07T05:57:33;12.23;;;7.00;;
33579;SDS011;19909;43.644;-79.438;2023-08-07T05:59:59;12.80;;;6.40;;
33579;SDS011;19909;43.644;-79.438;2023-08-07T06:02:26;12.63;;;7.32;;
33579;SDS011;19909;43.644;-79.438;2023-08-07T06:04:52;11.57;;;6.45;;
33579;SDS011;19909;43.644;-79.438;2023-08-07T06:07:19;9.15;;;6.45;;
33579;SDS011;19909;43.644;-79.438;2023-08-07T06:09:45;11.98;;;7.70;;
33579;SDS011;19909;43.644;-79.438;2023-08-07T06:12:11;11.50;;;7.43;;
33579;SDS011;19909;43.644;-79.438;2023-08-07T06:14:37;12.70;;;7.82;;
33579;SDS011;19909;43.644;-79.438;2023-08-07T06:17:04;15.57;;;7.93;;
33579;SDS011;19909;43.644;-79.438;2023-08-07T06:19:30;11.95;;;7.57;;
33579;SDS011;19909;43.644;-79.438;2023-08-07T06:21:56;17.85;;;7.38;;
33579;SDS011;19909;43.644;-79.438;2023-08-07T06:24:23;12.95;;;8.18;;
33579;SDS011;19909;43.644;-79.438;2023-08-07T06:26:50;15.48;;;9.43;;
33579;SDS011;19909;43.644;-79.438;2023-08-07T06:29:16;13.68;;;8.23;;
33579;SDS011;19909;43.644;-79.438;2023-08-07T06:31:42;11.57;;;7.93;;
33579;SDS011;19909;43.644;-79.438;2023-08-07T06:34:08;11.32;;;8.15;;
33579;SDS011;19909;43.644;-79.438;2023-08-07T06:36:34;10.68;;;7.70;;
33579;SDS011;19909;43.644;-79.438;2023-08-07T06:39:00;14.35;;;7.78;;
33579;SDS011;19909;43.644;-79.438;2023-08-07T06:41:28;11.15;;;8.32;;
33579;SDS011;19909;43.644;-79.438;2023-08-07T06:43:54;9.93;;;6.90;;
33579;SDS011;19909;43.644;-79.438;2023-08-07T06:46:21;12.13;;;7.57;;
33579;SDS011;19909;43.644;-79.438;2023-08-07T06:48:51;11.75;;;6.82;;
33579;SDS011;19909;43.644;-79.438;2023-08-07T06:51:18;8.50;;;7.18;;
33579;SDS011;19909;43.644;-79.438;2023-08-07T06:53:44;10.25;;;6.20;;
33579;SDS011;19909;43.644;-79.438;2023-08-07T06:56:10;9.00;;;6.35;;
33579;SDS011;19909;43.644;-79.438;2023-08-07T06:58:36;9.73;;;6.22;;
33579;SDS011;19909;43.644;-79.438;2023-08-07T07:01:02;10.73;;;6.68;;
33579;SDS011;19909;43.644;-79.438;2023-08-07T07:03:28;10.68;;;6.95;;
33579;SDS011;19909;43.644;-79.438;2023-08-07T07:05:55;9.82;;;5.93;;
33579;SDS011;19909;43.644;-79.438;2023-08-07T07:08:21;11.85;;;7.25;;
33579;SDS011;19909;43.644;-79.438;2023-08-07T07:10:48;13.70;;;6.35;;
33579;SDS011;19909;43.644;-79.438;2023-08-07T07:13:14;9.50;;;6.68;;
33579;SDS011;19909;43.644;-79.438;2023-08-07T07:15:40;11.55;;;7.18;;
33579;SDS011;19909;43.644;-79.438;2023-08-07T07:18:07;9.00;;;7.13;;
33579;SDS011;19909;43.644;-79.438;2023-08-07T07:20:33;8.75;;;6.40;;
33579;SDS011;19909;43.644;-79.438;2023-08-07T07:22:59;7.88;;;6.70;;
33579;SDS011;19909;43.644;-79.438;2023-08-07T07:25:25;7.53;;;6.38;;
33579;SDS011;19909;43.644;-79.438;2023-08-07T07:27:51;8.45;;;7.00;;
33579;SDS011;19909;43.644;-79.438;2023-08-07T07:30:17;10.65;;;7.38;;
33579;SDS011;19909;43.644;-79.438;2023-08-07T07:32:43;11.30;;;7.07;;
33579;SDS011;19909;43.644;-79.438;2023-08-07T07:35:11;13.20;;;6.97;;
33579;SDS011;19909;43.644;-79.438;2023-08-07T07:37:37;10.98;;;7.47;;
33579;SDS011;19909;43.644;-79.438;2023-08-07T07:40:03;9.27;;;7.93;;
33579;SDS011;19909;43.644;-79.438;2023-08-07T07:42:30;7.57;;;6.75;;
33579;SDS011;19909;43.644;-79.438;2023-08-07T07:44:56;10.93;;;7.10;;
33579;SDS011;19909;43.644;-79.438;2023-08-07T07:47:22;9.75;;;7.57;;
33579;SDS011;19909;43.644;-79.438;2023-08-07T07:49:48;7.72;;;6.60;;
33579;SDS011;19909;43.644;-79.438;2023-08-07T07:52:29;9.20;;;6.72;;
33579;SDS011;19909;43.644;-79.438;2023-08-07T07:54:55;9.45;;;7.00;;
33579;SDS011;19909;43.644;-79.438;2023-08-07T07:57:21;8.02;;;6.40;;
33579;SDS011;19909;43.644;-79.438;2023-08-07T07:59:47;9.57;;;7.20;;
33579;SDS011;19909;43.644;-79.438;2023-08-07T08:02:14;10.25;;;6.68;;
33579;SDS011;19909;43.644;-79.438;2023-08-07T08:04:41;8.88;;;7.20;;
33579;SDS011;19909;43.644;-79.438;2023-08-07T08:07:07;6.93;;;6.22;;
33579;SDS011;19909;43.644;-79.438;2023-08-07T08:09:33;9.93;;;7.57;;
33579;SDS011;19909;43.644;-79.438;2023-08-07T08:11:59;8.27;;;7.25;;
33579;SDS011;19909;43.644;-79.438;2023-08-07T08:14:25;12.40;;;7.00;;
33579;SDS011;19909;43.644;-79.438;2023-08-07T08:16:52;9.35;;;7.75;;
33579;SDS011;19909;43.644;-79.438;2023-08-07T08:19:18;8.48;;;6.65;;
33579;SDS011;19909;43.644;-79.438;2023-08-07T08:21:44;10.15;;;7.43;;
33579;SDS011;19909;43.644;-79.438;2023-08-07T08:24:10;10.40;;;7.10;;
33579;SDS011;19909;43.644;-79.438;2023-08-07T08:26:36;9.00;;;7.05;;
33579;SDS011;19909;43.644;-79.438;2023-08-07T08:29:02;8.95;;;7.72;;
33579;SDS011;19909;43.644;-79.438;2023-08-07T08:31:29;8.15;;;7.30;;
33579;SDS011;19909;43.644;-79.438;2023-08-07T08:33:55;12.50;;;7.35;;
33579;SDS011;19909;43.644;-79.438;2023-08-07T08:36:22;9.43;;;6.57;;
33579;SDS011;19909;43.644;-79.438;2023-08-07T08:38:49;9.75;;;7.18;;
33579;SDS011;19909;43.644;-79.438;2023-08-07T08:41:16;8.38;;;7.22;;
33579;SDS011;19909;43.644;-79.438;2023-08-07T08:43:45;10.48;;;7.60;;
33579;SDS011;19909;43.644;-79.438;2023-08-07T08:46:15;10.45;;;7.15;;
33579;SDS011;19909;43.644;-79.438;2023-08-07T08:48:45;8.13;;;6.78;;
33579;SDS011;19909;43.644;-79.438;2023-08-07T08:51:15;8.88;;;6.90;;
33579;SDS011;19909;43.644;-79.438;2023-08-07T08:53:44;9.00;;;6.82;;
33579;SDS011;19909;43.644;-79.438;2023-08-07T08:56:11;9.15;;;7.50;;
33579;SDS011;19909;43.644;-79.438;2023-08-07T08:58:38;9.70;;;7.78;;
33579;SDS011;19909;43.644;-79.438;2023-08-07T09:01:04;9.85;;;7.70;;
33579;SDS011;19909;43.644;-79.438;2023-08-07T09:03:31;9.73;;;8.13;;
33579;SDS011;19909;43.644;-79.438;2023-08-07T09:05:58;11.73;;;7.85;;
33579;SDS011;19909;43.644;-79.438;2023-08-07T09:08:27;8.40;;;7.13;;
33579;SDS011;19909;43.644;-79.438;2023-08-07T09:10:55;9.63;;;7.75;;
33579;SDS011;19909;43.644;-79.438;2023-08-07T09:13:23;14.20;;;8.60;;
33579;SDS011;19909;43.644;-79.438;2023-08-07T09:15:52;9.70;;;7.15;;
33579;SDS011;19909;43.644;-79.438;2023-08-07T09:18:19;9.98;;;8.10;;
33579;SDS011;19909;43.644;-79.438;2023-08-07T09:20:45;10.98;;;8.57;;
33579;SDS011;19909;43.644;-79.438;2023-08-07T09:23:12;8.77;;;7.40;;
33579;SDS011;19909;43.644;-79.438;2023-08-07T09:25:41;9.40;;;8.40;;
33579;SDS011;19909;43.644;-79.438;2023-08-07T09:28:08;8.82;;;7.85;;
33579;SDS011;19909;43.644;-79.438;2023-08-07T09:30:35;10.90;;;7.47;;
33579;SDS011;19909;43.644;-79.438;2023-08-07T09:33:07;13.25;;;7.95;;
33579;SDS011;19909;43.644;-79.438;2023-08-07T09:35:33;9.38;;;8.18;;
33579;SDS011;19909;43.644;-79.438;2023-08-07T09:37:59;10.35;;;7.78;;
33579;SDS011;19909;43.644;-79.438;2023-08-07T09:40:26;10.00;;;8.45;;
33579;SDS011;19909;43.644;-79.438;2023-08-07T09:42:53;11.35;;;7.80;;
33579;SDS011;19909;43.644;-79.438;2023-08-07T09:45:26;9.18;;;7.80;;
33579;SDS011;19909;43.644;-79.438;2023-08-07T09:47:57;9.43;;;8.23;;
33579;SDS011;19909;43.644;-79.438;2023-08-07T09:50:28;11.05;;;7.93;;
33579;SDS011;19909;43.644;-79.438;2023-08-07T09:52:56;8.30;;;7.53;;
33579;SDS011;19909;43.644;-79.438;2023-08-07T09:55:23;8.52;;;7.72;;
33579;SDS011;19909;43.644;-79.438;2023-08-07T09:57:50;9.85;;;8.13;;
33579;SDS011;19909;43.644;-79.438;2023-08-07T10:00:17;10.68;;;7.85;;
33579;SDS011;19909;43.644;-79.438;2023-08-07T10:02:47;10.32;;;8.02;;
33579;SDS011;19909;43.644;-79.438;2023-08-07T10:05:14;9.52;;;8.27;;
33579;SDS011;19909;43.644;-79.438;2023-08-07T10:07:41;9.32;;;8.30;;
33579;SDS011;19909;43.644;-79.438;2023-08-07T10:10:08;9.45;;;8.07;;
33579;SDS011;19909;43.644;-79.438;2023-08-07T10:12:36;10.15;;;8.32;;
33579;SDS011;19909;43.644;-79.438;2023-08-07T10:15:04;10.18;;;8.75;;
33579;SDS011;19909;43.644;-79.438;2023-08-07T10:17:30;9.00;;;8.20;;
33579;SDS011;19909;43.644;-79.438;2023-08-07T10:19:58;9.45;;;8.07;;
33579;SDS011;19909;43.644;-79.438;2023-08-07T10:22:24;9.30;;;7.85;;
33579;SDS011;19909;43.644;-79.438;2023-08-07T10:24:53;9.70;;;8.70;;
33579;SDS011;19909;43.644;-79.438;2023-08-07T10:27:22;9.02;;;8.13;;
33579;SDS011;19909;43.644;-79.438;2023-08-07T10:29:50;9.15;;;8.25;;
33579;SDS011;19909;43.644;-79.438;2023-08-07T10:32:19;10.48;;;8.30;;
33579;SDS011;19909;43.644;-79.438;2023-08-07T10:34:47;9.63;;;8.70;;
33579;SDS011;19909;43.644;-79.438;2023-08-07T10:40:05;10.77;;;8.85;;
33579;SDS011;19909;43.644;-79.438;2023-08-07T10:45:18;9.48;;;8.57;;
33579;SDS011;19909;43.644;-79.438;2023-08-07T10:48:07;9.80;;;7.90;;
33579;SDS011;19909;43.644;-79.438;2023-08-07T10:50:46;8.73;;;7.90;;
33579;SDS011;19909;43.644;-79.438;2023-08-07T10:53:21;10.18;;;8.30;;
33579;SDS011;19909;43.644;-79.438;2023-08-07T10:56:07;10.00;;;8.73;;
33579;SDS011;19909;43.644;-79.438;2023-08-07T10:58:35;8.68;;;7.47;;
33579;SDS011;19909;43.644;-79.438;2023-08-07T11:03:48;8.70;;;7.88;;
33579;SDS011;19909;43.644;-79.438;2023-08-07T11:06:21;9.45;;;8.57;;
33579;SDS011;19909;43.644;-79.438;2023-08-07T11:08:50;9.13;;;7.72;;
33579;SDS011;19909;43.644;-79.438;2023-08-07T11:11:16;9.15;;;8.25;;
33579;SDS011;19909;43.644;-79.438;2023-08-07T11:13:43;8.77;;;7.68;;
33579;SDS011;19909;43.644;-79.438;2023-08-07T11:16:09;14.43;;;8.30;;
33579;SDS011;19909;43.644;-79.438;2023-08-07T11:18:36;8.45;;;7.65;;
33579;SDS011;19909;43.644;-79.438;2023-08-07T11:21:06;8.10;;;7.18;;
33579;SDS011;19909;43.644;-79.438;2023-08-07T11:23:33;8.90;;;8.10;;
33579;SDS011;19909;43.644;-79.438;2023-08-07T11:26:00;8.73;;;7.60;;
33579;SDS011;19909;43.644;-79.438;2023-08-07T11:28:28;9.27;;;8.40;;
33579;SDS011;19909;43.644;-79.438;2023-08-07T11:30:54;9.27;;;8.48;;
33579;SDS011;19909;43.644;-79.438;2023-08-07T11:33:25;8.10;;;7.30;;
33579;SDS011;19909;43.644;-79.438;2023-08-07T11:35:52;8.70;;;7.80;;
33579;SDS011;19909;43.644;-79.438;2023-08-07T11:38:36;8.23;;;7.47;;
33579;SDS011;19909;43.644;-79.438;2023-08-07T11:41:09;8.93;;;6.93;;
33579;SDS011;19909;43.644;-79.438;2023-08-07T11:43:37;8.98;;;8.13;;
33579;SDS011;19909;43.644;-79.438;2023-08-07T11:46:04;9.63;;;7.43;;
33579;SDS011;19909;43.644;-79.438;2023-08-07T11:48:33;8.52;;;7.55;;
33579;SDS011;19909;43.644;-79.438;2023-08-07T11:51:00;9.00;;;8.15;;
33579;SDS011;19909;43.644;-79.438;2023-08-07T11:53:28;8.02;;;7.25;;
33579;SDS011;19909;43.644;-79.438;2023-08-07T11:56:00;8.20;;;7.50;;
33579;SDS011;19909;43.644;-79.438;2023-08-07T11:58:33;8.98;;;6.65;;
33579;SDS011;19909;43.644;-79.438;2023-08-07T12:01:04;9.23;;;6.68;;
33579;SDS011;19909;43.644;-79.438;2023-08-07T12:03:53;8.90;;;6.18;;
33579;SDS011;19909;43.644;-79.438;2023-08-07T12:06:21;6.43;;;5.88;;
33579;SDS011;19909;43.644;-79.438;2023-08-07T12:08:48;6.30;;;5.70;;
33579;SDS011;19909;43.644;-79.438;2023-08-07T12:11:16;7.80;;;5.10;;
33579;SDS011;19909;43.644;-79.438;2023-08-07T12:13:43;6.10;;;4.70;;
33579;SDS011;19909;43.644;-79.438;2023-08-07T12:16:11;5.57;;;5.07;;
33579;SDS011;19909;43.644;-79.438;2023-08-07T12:18:44;4.88;;;4.05;;
33579;SDS011;19909;43.644;-79.438;2023-08-07T12:21:12;4.57;;;4.10;;
33579;SDS011;19909;43.644;-79.438;2023-08-07T12:23:40;4.07;;;3.78;;
33579;SDS011;19909;43.644;-79.438;2023-08-07T12:26:06;5.05;;;3.92;;
33579;SDS011;19909;43.644;-79.438;2023-08-07T12:28:35;6.25;;;3.72;;
33579;SDS011;19909;43.644;-79.438;2023-08-07T12:31:02;4.10;;;3.63;;
33579;SDS011;19909;43.644;-79.438;2023-08-07T12:33:29;4.15;;;3.80;;
33579;SDS011;19909;43.644;-79.438;2023-08-07T12:35:56;4.40;;;3.92;;
33579;SDS011;19909;43.644;-79.438;2023-08-07T12:38:22;4.10;;;3.70;;
33579;SDS011;19909;43.644;-79.438;2023-08-07T12:40:49;4.80;;;4.32;;
33579;SDS011;19909;43.644;-79.438;2023-08-07T12:43:15;4.80;;;3.72;;
33579;SDS011;19909;43.644;-79.438;2023-08-07T12:45:42;4.25;;;3.85;;
33579;SDS011;19909;43.644;-79.438;2023-08-07T12:48:08;3.30;;;3.00;;
33579;SDS011;19909;43.644;-79.438;2023-08-07T12:50:34;3.80;;;3.50;;
33579;SDS011;19909;43.644;-79.438;2023-08-07T12:53:00;4.93;;;3.40;;
33579;SDS011;19909;43.644;-79.438;2023-08-07T12:55:27;5.70;;;3.30;;
33579;SDS011;19909;43.644;-79.438;2023-08-07T12:57:53;4.05;;;3.45;;
33579;SDS011;19909;43.644;-79.438;2023-08-07T13:00:20;3.45;;;3.15;;
33579;SDS011;19909;43.644;-79.438;2023-08-07T13:02:47;4.35;;;3.58;;
33579;SDS011;19909;43.644;-79.438;2023-08-07T13:05:15;3.78;;;3.47;;
33579;SDS011;19909;43.644;-79.438;2023-08-07T13:07:43;6.55;;;3.80;;
33579;SDS011;19909;43.644;-79.438;2023-08-07T13:10:10;3.55;;;3.25;;
33579;SDS011;19909;43.644;-79.438;2023-08-07T13:12:38;5.32;;;3.58;;
33579;SDS011;19909;43.644;-79.438;2023-08-07T13:15:07;5.32;;;3.80;;
33579;SDS011;19909;43.644;-79.438;2023-08-07T13:17:34;6.07;;;3.38;;
33579;SDS011;19909;43.644;-79.438;2023-08-07T13:20:02;3.25;;;3.05;;
33579;SDS011;19909;43.644;-79.438;2023-08-07T13:22:42;4.18;;;3.83;;
33579;SDS011;19909;43.644;-79.438;2023-08-07T13:25:10;4.95;;;3.65;;
33579;SDS011;19909;43.644;-79.438;2023-08-07T13:27:37;4.82;;;3.38;;
33579;SDS011;19909;43.644;-79.438;2023-08-07T13:30:04;4.32;;;3.60;;
33579;SDS011;19909;43.644;-79.438;2023-08-07T13:32:32;4.82;;;3.22;;
33579;SDS011;19909;43.644;-79.438;2023-08-07T13:34:58;3.35;;;3.08;;
33579;SDS011;19909;43.644;-79.438;2023-08-07T13:37:24;5.20;;;3.38;;
33579;SDS011;19909;43.644;-79.438;2023-08-07T13:39:51;3.47;;;3.17;;
33579;SDS011;19909;43.644;-79.438;2023-08-07T13:42:18;5.68;;;3.17;;
33579;SDS011;19909;43.644;-79.438;2023-08-07T13:44:44;3.50;;;3.20;;
33579;SDS011;19909;43.644;-79.438;2023-08-07T13:47:10;3.10;;;2.75;;
33579;SDS011;19909;43.644;-79.438;2023-08-07T13:49:37;5.80;;;2.90;;
33579;SDS011;19909;43.644;-79.438;2023-08-07T13:52:04;8.88;;;3.20;;
33579;SDS011;19909;43.644;-79.438;2023-08-07T13:54:30;3.08;;;2.78;;
33579;SDS011;19909;43.644;-79.438;2023-08-07T13:56:56;3.63;;;3.13;;
33579;SDS011;19909;43.644;-79.438;2023-08-07T13:59:22;5.43;;;3.00;;
33579;SDS011;19909;43.644;-79.438;2023-08-07T14:01:48;4.65;;;3.28;;
33579;SDS011;19909;43.644;-79.438;2023-08-07T14:04:15;4.20;;;2.80;;
33579;SDS011;19909;43.644;-79.438;2023-08-07T14:06:41;4.40;;;2.80;;
33579;SDS011;19909;43.644;-79.438;2023-08-07T14:09:08;3.45;;;2.60;;
33579;SDS011;19909;43.644;-79.438;2023-08-07T14:11:34;6.47;;;3.58;;
33579;SDS011;19909;43.644;-79.438;2023-08-07T14:14:01;5.40;;;3.20;;
33579;SDS011;19909;43.644;-79.438;2023-08-07T14:16:27;3.35;;;3.05;;
33579;SDS011;19909;43.644;-79.438;2023-08-07T14:18:53;3.03;;;2.35;;
33579;SDS011;19909;43.644;-79.438;2023-08-07T14:21:19;5.22;;;2.88;;
33579;SDS011;19909;43.644;-79.438;2023-08-07T14:23:46;5.88;;;2.78;;
33579;SDS011;19909;43.644;-79.438;2023-08-07T14:26:13;2.90;;;2.53;;
33579;SDS011;19909;43.644;-79.438;2023-08-07T14:28:39;9.73;;;3.05;;
33579;SDS011;19909;43.644;-79.438;2023-08-07T14:31:06;4.15;;;3.08;;
33579;SDS011;19909;43.644;-79.438;2023-08-07T14:33:33;3.00;;;2.70;;
33579;SDS011;19909;43.644;-79.438;2023-08-07T14:36:00;4.72;;;2.97;;